Terminal Aerodrome Forecast
Issued by NWS Sioux Falls, SD

Home | Current Version | Previous Version | Graphics & Text | Print | Product List | Glossary Off
Versions: 1 2 3 4 5 6 7 8 9 10 11 12 13 14 15 16 17 18 19 20 21 22

000
FTUS43 KFSD 161722
TAFSUX
TAF
KSUX 161722Z 1618/1718 20007KT P6SM SHRA VCTS BKN009 OVC020CB
     FM162200 28011KT P6SM VCSH BKN030
     FM170000 30011KT P6SM BKN035
     FM170500 29011KT P6SM OVC030
     FM171200 30010KT P6SM SCT030
     FM171600 31015G23KT P6SM FEW120=

USA.gov is the U.S. government's official web portal to all federal, state and local government web resources and services.